ZA-0101 weather

Sappi / Ngodwana
Mpumalanga, South Africa

Public forecast

Using degrees Celsius for public forecast. Weather courtesy of forecast.io.

METAR (pilot weather report)

Closest report is Kruger Mpumalanga International Airport, 29.0 nm (53.6 km) ENE. Retrieved 2019/09/21 07:00 UTC (46 minutes ago):

FAKN 210700Z 30001KT CAVOK 23/12 Q1022 NOSIG

TAF (pilot weather forecast)

Forecast is more than 12 hours old.

Closest forecast is Kruger Mpumalanga International Airport, 29.0 nm (53.6 km) ENE. Retrieved 2017/06/05 04:55 UTC (2 years ago):

TAF FAKN 050300Z 0504/0515 25006KT CAVOK BECMG 0511/0513 13005KT SCT030 BECMG 0513/0515 07005KT TX22/0513ZTN08/0504Z